createdAt,value
2017-11-17T00:01:36.703Z,29.55
2017-11-17T00:04:04.301Z,30.00
2017-11-17T00:06:32.619Z,33.60
2017-11-17T00:09:00.302Z,31.70
2017-11-17T00:11:27.873Z,27.02
2017-11-17T00:13:55.430Z,26.37
2017-11-17T00:16:23.016Z,25.05
2017-11-17T00:18:50.590Z,26.33
2017-11-17T00:21:18.936Z,24.70
2017-11-17T00:23:46.503Z,25.20
2017-11-17T00:26:14.087Z,25.83
2017-11-17T00:28:42.430Z,26.40
2017-11-17T00:31:10.000Z,27.15
2017-11-17T00:33:37.563Z,27.62
2017-11-17T00:36:05.114Z,27.48
2017-11-17T00:38:32.663Z,26.50
2017-11-17T00:41:00.317Z,26.12
2017-11-17T00:43:27.867Z,26.58
2017-11-17T00:45:55.445Z,27.00
2017-11-17T00:48:22.994Z,26.75
2017-11-17T00:50:50.557Z,26.45
2017-11-17T00:53:18.119Z,24.77
2017-11-17T00:55:45.686Z,25.12
2017-11-17T00:58:13.251Z,25.48
2017-11-17T01:00:40.826Z,26.37
2017-11-17T01:03:08.378Z,25.15
2017-11-17T01:05:35.962Z,23.98
2017-11-17T01:08:04.314Z,25.62
2017-11-17T01:10:31.901Z,25.70
2017-11-17T01:12:59.457Z,25.98
2017-11-17T01:15:27.766Z,25.73
2017-11-17T01:17:55.332Z,24.48
2017-11-17T01:20:22.898Z,24.65
2017-11-17T01:22:50.466Z,26.08
2017-11-17T01:25:18.056Z,24.83
2017-11-17T01:27:45.635Z,23.65
2017-11-17T01:30:13.980Z,24.87
2017-11-17T01:32:41.535Z,25.20
2017-11-17T01:35:09.097Z,24.17
2017-11-17T01:37:36.695Z,25.12
2017-11-17T01:40:05.025Z,24.73
2017-11-17T01:42:32.610Z,24.15
2017-11-17T01:45:00.184Z,24.37
2017-11-17T01:47:27.747Z,24.80
2017-11-17T01:49:56.085Z,24.98
2017-11-17T01:52:23.646Z,25.60
2017-11-17T01:54:51.185Z,24.87
2017-11-17T01:57:18.755Z,25.73
2017-11-17T01:59:46.321Z,24.70
2017-11-17T02:02:19.972Z,26.45
2017-11-17T02:04:48.320Z,24.40
2017-11-17T02:07:15.904Z,25.30
2017-11-17T02:09:43.450Z,26.12
2017-11-17T02:12:11.001Z,24.00
2017-11-17T02:14:38.588Z,25.58
2017-11-17T02:17:06.131Z,23.65
2017-11-17T02:19:34.461Z,24.67
2017-11-17T02:22:02.004Z,24.42
2017-11-17T02:24:30.331Z,26.23
2017-11-17T02:26:57.900Z,26.87
2017-11-17T02:29:25.478Z,26.37
2017-11-17T02:31:53.026Z,25.65
2017-11-17T02:34:20.589Z,25.85
2017-11-17T02:36:48.193Z,26.95
2017-11-17T02:39:15.768Z,26.08
2017-11-17T02:41:43.385Z,26.50
2017-11-17T02:44:11.748Z,25.88
2017-11-17T02:46:39.331Z,26.00
2017-11-17T02:49:07.674Z,26.48
2017-11-17T02:51:35.229Z,26.20
2017-11-17T02:54:02.813Z,25.75
2017-11-17T02:56:30.402Z,27.67
2017-11-17T02:58:58.728Z,27.55
2017-11-17T03:01:26.325Z,28.17
2017-11-17T03:03:54.658Z,25.62
2017-11-17T03:06:22.218Z,27.40
2017-11-17T03:08:49.782Z,27.25
2017-11-17T03:11:17.346Z,25.60
2017-11-17T03:13:44.895Z,26.85
2017-11-17T03:16:12.436Z,26.62
2017-11-17T03:18:40.016Z,26.50
2017-11-17T03:21:07.559Z,27.52
2017-11-17T03:23:35.125Z,26.52
2017-11-17T03:26:02.705Z,26.85
2017-11-17T03:28:30.323Z,27.08
2017-11-17T03:30:57.916Z,28.20
2017-11-17T03:33:25.481Z,28.35
2017-11-17T03:35:53.028Z,27.40
2017-11-17T03:38:20.565Z,29.15
2017-11-17T03:40:48.158Z,27.13
2017-11-17T03:43:15.722Z,27.70
2017-11-17T03:45:43.293Z,27.42
2017-11-17T03:48:10.845Z,27.25
2017-11-17T03:50:38.422Z,27.70
2017-11-17T03:53:05.983Z,27.48
2017-11-17T03:55:33.590Z,27.45
2017-11-17T03:58:01.154Z,26.98
2017-11-17T04:00:28.708Z,25.90
2017-11-17T04:02:57.510Z,28.42
2017-11-17T04:05:25.082Z,27.98
2017-11-17T04:07:52.743Z,28.35
2017-11-17T04:10:20.291Z,27.67
2017-11-17T04:12:47.852Z,29.67
2017-11-17T04:15:15.454Z,29.35
2017-11-17T04:17:43.082Z,31.08
2017-11-17T04:20:10.663Z,28.80
2017-11-17T04:22:38.241Z,30.70
2017-11-17T04:25:05.842Z,30.33
2017-11-17T04:27:33.427Z,31.37
2017-11-17T04:30:00.988Z,31.65
2017-11-17T04:32:28.549Z,33.28
2017-11-17T04:34:56.131Z,34.15
2017-11-17T04:37:23.681Z,31.75
2017-11-17T04:39:51.237Z,32.40
2017-11-17T04:42:18.793Z,34.65
2017-11-17T04:44:46.337Z,30.33
2017-11-17T04:47:13.907Z,30.23
2017-11-17T04:49:41.468Z,29.73
2017-11-17T04:52:09.028Z,29.67
2017-11-17T04:54:36.583Z,30.45
2017-11-17T04:57:04.154Z,30.70
2017-11-17T04:59:31.714Z,30.33
2017-11-17T05:01:59.279Z,29.05
2017-11-17T05:04:26.865Z,28.80
2017-11-17T05:06:54.421Z,28.05
2017-11-17T05:09:22.764Z,28.40
2017-11-17T05:11:50.430Z,29.48
2017-11-17T05:14:17.996Z,28.90
2017-11-17T05:16:45.578Z,28.35
2017-11-17T05:19:13.311Z,27.95
2017-11-17T05:21:40.978Z,29.87
2017-11-17T05:24:08.545Z,29.73
2017-11-17T05:26:36.113Z,29.40
2017-11-17T05:29:03.690Z,29.25
2017-11-17T05:31:31.232Z,29.58
2017-11-17T05:33:58.801Z,29.95
2017-11-17T05:36:26.359Z,28.50
2017-11-17T05:38:53.929Z,38.22
2017-11-17T05:41:21.498Z,33.58
2017-11-17T05:43:49.058Z,28.25
2017-11-17T05:46:16.647Z,37.40
2017-11-17T05:48:44.218Z,41.75
2017-11-17T05:51:11.774Z,38.33
2017-11-17T05:53:39.327Z,30.70
2017-11-17T05:56:06.915Z,30.50
2017-11-17T05:58:34.510Z,30.90
2017-11-17T06:01:02.108Z,31.10
2017-11-17T06:03:30.436Z,30.27
2017-11-17T06:05:57.994Z,30.27
2017-11-17T06:08:25.553Z,31.67
2017-11-17T06:10:53.113Z,32.30
2017-11-17T06:13:20.687Z,32.95
2017-11-17T06:15:48.247Z,47.92
2017-11-17T06:18:15.813Z,42.90
2017-11-17T06:20:43.366Z,29.77
2017-11-17T06:23:10.927Z,37.70
2017-11-17T06:25:38.549Z,50.58
2017-11-17T06:28:06.107Z,31.65
2017-11-17T06:30:33.671Z,31.00
2017-11-17T06:33:01.228Z,30.62
2017-11-17T06:35:28.789Z,30.05
2017-11-17T06:37:57.222Z,30.62
2017-11-17T06:40:25.611Z,31.20
2017-11-17T06:42:53.943Z,31.05
2017-11-17T06:45:21.508Z,32.85
2017-11-17T06:47:49.072Z,34.40
2017-11-17T06:50:16.648Z,46.83
2017-11-17T06:52:44.217Z,49.63
2017-11-17T06:55:12.562Z,40.33
2017-11-17T06:57:40.148Z,32.47
2017-11-17T07:00:07.737Z,39.15
2017-11-17T07:02:36.065Z,37.15
2017-11-17T07:05:03.653Z,50.22
2017-11-17T07:07:31.209Z,55.33
2017-11-17T07:09:58.788Z,39.22
2017-11-17T07:12:27.107Z,35.25
2017-11-17T07:14:54.661Z,37.55
2017-11-17T07:17:22.220Z,32.47
2017-11-17T07:19:49.810Z,31.83
2017-11-17T07:22:17.590Z,31.75
2017-11-17T07:24:45.141Z,35.60
2017-11-17T07:27:12.711Z,33.38
2017-11-17T07:29:40.402Z,71.35
2017-11-17T07:32:08.759Z,39.15
2017-11-17T07:34:36.320Z,48.58
2017-11-17T07:37:03.896Z,32.90
2017-11-17T07:39:32.217Z,40.10
2017-11-17T07:41:59.764Z,38.65
2017-11-17T07:44:27.330Z,35.95
2017-11-17T07:46:54.906Z,38.47
2017-11-17T07:49:22.466Z,35.65
2017-11-17T07:51:50.050Z,34.97
2017-11-17T07:54:17.622Z,36.10
2017-11-17T07:56:45.942Z,33.90
2017-11-17T07:59:13.768Z,37.20
2017-11-17T08:01:41.339Z,36.70
2017-11-17T08:04:08.916Z,31.48
2017-11-17T08:06:36.493Z,32.45
2017-11-17T08:09:04.051Z,32.47
2017-11-17T08:11:31.614Z,32.05
2017-11-17T08:13:59.188Z,30.52
2017-11-17T08:16:26.748Z,31.23
2017-11-17T08:18:54.333Z,33.00
2017-11-17T08:21:21.901Z,33.20
2017-11-17T08:23:49.484Z,33.67
2017-11-17T08:26:17.066Z,36.50
2017-11-17T08:28:44.660Z,32.58
2017-11-17T08:31:12.205Z,32.13
2017-11-17T08:33:39.773Z,32.65
2017-11-17T08:36:07.345Z,33.58
2017-11-17T08:38:34.936Z,33.47
2017-11-17T08:41:03.266Z,33.63
2017-11-17T08:43:30.811Z,34.05
2017-11-17T08:45:58.371Z,40.50
2017-11-17T08:48:25.960Z,40.53
2017-11-17T08:50:53.534Z,33.08
2017-11-17T08:53:21.109Z,35.35
2017-11-17T08:55:49.468Z,32.95
2017-11-17T08:58:17.042Z,33.60
2017-11-17T09:00:44.613Z,31.80
2017-11-17T09:03:12.968Z,32.83
2017-11-17T09:05:40.546Z,31.05
2017-11-17T09:08:08.864Z,29.87
2017-11-17T09:10:36.448Z,33.15
2017-11-17T09:13:04.004Z,36.70
2017-11-17T09:15:31.563Z,31.60
2017-11-17T09:17:59.131Z,29.90
2017-11-17T09:20:26.693Z,36.22
2017-11-17T09:22:54.272Z,32.40
2017-11-17T09:25:21.844Z,34.58
2017-11-17T09:27:50.191Z,31.37
2017-11-17T09:30:17.767Z,30.60
2017-11-17T09:32:45.328Z,27.62
2017-11-17T09:35:13.722Z,30.75
2017-11-17T09:37:41.902Z,31.45
2017-11-17T09:40:10.220Z,32.70
2017-11-17T09:42:37.803Z,31.25
2017-11-17T09:45:06.987Z,31.37
2017-11-17T09:47:34.568Z,31.12
2017-11-17T09:50:02.139Z,31.73
2017-11-17T09:52:29.710Z,33.25
2017-11-17T09:54:57.265Z,31.90
2017-11-17T09:57:24.828Z,32.17
2017-11-17T09:59:52.381Z,31.83
2017-11-17T10:02:19.947Z,34.08
2017-11-17T10:04:47.523Z,33.92
2017-11-17T10:07:15.863Z,32.55
2017-11-17T10:09:43.416Z,34.10
2017-11-17T10:12:10.978Z,34.75
2017-11-17T10:14:38.530Z,33.60
2017-11-17T10:17:06.110Z,32.63
2017-11-17T10:19:33.707Z,31.98
2017-11-17T10:22:02.062Z,43.87
2017-11-17T10:24:29.634Z,34.13
2017-11-17T10:26:57.963Z,35.20
2017-11-17T10:29:25.519Z,35.85
2017-11-17T10:31:53.077Z,34.90
2017-11-17T10:34:20.657Z,34.17
2017-11-17T10:36:48.242Z,32.65
2017-11-17T10:39:15.836Z,35.35
2017-11-17T10:41:43.407Z,45.60
2017-11-17T10:44:10.975Z,34.78
2017-11-17T10:46:38.546Z,34.15
2017-11-17T10:49:06.101Z,31.17
2017-11-17T10:51:33.663Z,33.97
2017-11-17T10:54:02.008Z,33.10
2017-11-17T10:56:30.363Z,34.25
2017-11-17T10:59:04.701Z,33.22
2017-11-17T11:01:33.071Z,33.58
2017-11-17T11:04:00.629Z,33.75
2017-11-17T11:06:28.969Z,35.88
2017-11-17T11:08:56.568Z,34.58
2017-11-17T11:11:30.514Z,34.40
2017-11-17T11:13:58.089Z,35.50
2017-11-17T11:16:25.707Z,35.20
2017-11-17T11:18:54.045Z,33.95
2017-11-17T11:21:21.602Z,36.05
2017-11-17T11:24:12.721Z,32.92
2017-11-17T11:26:40.316Z,32.40
2017-11-17T11:29:07.865Z,32.90
2017-11-17T11:31:35.473Z,33.07
2017-11-17T11:34:03.039Z,32.40
2017-11-17T11:36:30.628Z,33.77
2017-11-17T11:38:58.969Z,33.15
2017-11-17T11:41:26.531Z,34.10
2017-11-17T11:43:54.101Z,32.53
2017-11-17T11:46:21.664Z,31.80
2017-11-17T11:48:50.001Z,31.23
2017-11-17T11:51:17.581Z,30.88
2017-11-17T11:53:45.156Z,33.47
2017-11-17T11:56:12.751Z,30.65
2017-11-17T11:58:41.103Z,33.53
2017-11-17T12:01:08.714Z,33.63
2017-11-17T12:03:37.766Z,30.97
2017-11-17T12:06:05.318Z,31.63
2017-11-17T12:08:32.885Z,34.33
2017-11-17T12:11:03.660Z,36.57
2017-11-17T12:13:32.010Z,33.87
2017-11-17T12:15:59.572Z,34.37
2017-11-17T12:18:27.171Z,32.33
2017-11-17T12:20:54.731Z,30.77
2017-11-17T12:23:22.319Z,50.10
2017-11-17T12:25:49.893Z,34.87
2017-11-17T12:28:17.483Z,33.27
2017-11-17T12:30:46.020Z,39.27
2017-11-17T12:33:13.589Z,36.80
2017-11-17T12:35:41.148Z,33.70
2017-11-17T12:38:08.690Z,35.40
2017-11-17T12:40:36.257Z,33.87
2017-11-17T12:43:03.812Z,32.50
2017-11-17T12:45:31.426Z,33.73
2017-11-17T12:47:59.106Z,32.93
2017-11-17T12:50:27.448Z,36.07
2017-11-17T12:52:55.012Z,33.67
2017-11-17T12:55:22.592Z,34.23
2017-11-17T12:57:50.943Z,34.50
2017-11-17T13:00:18.509Z,32.07
2017-11-17T13:02:46.855Z,33.40
2017-11-17T13:05:14.428Z,33.83
2017-11-17T13:07:41.991Z,32.33
2017-11-17T13:10:09.542Z,35.90
2017-11-17T13:12:37.119Z,34.63
2017-11-17T13:15:04.675Z,34.47
2017-11-17T13:17:32.277Z,31.70
2017-11-17T13:19:59.836Z,33.30
2017-11-17T13:22:28.239Z,34.63
2017-11-17T13:24:56.582Z,34.70
2017-11-17T13:27:24.187Z,33.20
2017-11-17T13:29:51.741Z,31.93
2017-11-17T13:32:19.312Z,29.83
2017-11-17T13:34:47.047Z,32.33
2017-11-17T13:37:15.366Z,31.50
2017-11-17T13:39:42.982Z,30.27
2017-11-17T13:42:10.575Z,31.70
2017-11-17T13:44:38.179Z,29.33
2017-11-17T13:47:05.754Z,30.97
2017-11-17T13:49:33.337Z,32.50
2017-11-17T13:52:01.689Z,33.17
2017-11-17T13:54:29.255Z,34.40
2017-11-17T13:56:56.811Z,33.40
2017-11-17T13:59:24.364Z,33.57
2017-11-17T14:01:51.950Z,31.90
2017-11-17T14:04:20.260Z,32.20
2017-11-17T14:06:47.828Z,32.10
2017-11-17T14:09:15.392Z,29.13
2017-11-17T14:11:42.969Z,27.00
2017-11-17T14:14:10.531Z,27.67
2017-11-17T14:16:38.100Z,25.73
2017-11-17T14:19:05.667Z,23.73
2017-11-17T14:21:33.257Z,21.60
2017-11-17T14:24:01.601Z,13.87
2017-11-17T14:26:29.190Z,20.00
2017-11-17T14:28:57.519Z,17.57
2017-11-17T14:31:25.087Z,19.63
2017-11-17T14:33:52.655Z,20.17
2017-11-17T14:36:20.233Z,20.60
2017-11-17T14:38:47.801Z,20.97
2017-11-17T14:41:15.360Z,23.23
2017-11-17T14:43:42.922Z,25.27
2017-11-17T14:46:10.514Z,24.47
2017-11-17T14:48:38.087Z,25.53
2017-11-17T14:51:05.662Z,26.30
2017-11-17T14:53:33.233Z,26.27
2017-11-17T14:56:00.789Z,25.80
2017-11-17T14:58:29.123Z,25.90
2017-11-17T15:00:57.457Z,24.27
2017-11-17T15:03:25.055Z,26.20
2017-11-17T15:05:58.689Z,24.13
2017-11-17T15:08:32.524Z,24.90
2017-11-17T15:11:03.878Z,25.03
2017-11-17T15:13:31.455Z,21.83
2017-11-17T15:15:59.002Z,23.67
2017-11-17T15:18:26.564Z,25.83
2017-11-17T15:20:54.139Z,24.20
2017-11-17T15:23:21.702Z,24.00
2017-11-17T15:25:49.285Z,23.17
2017-11-17T15:28:16.845Z,23.57
2017-11-17T15:30:44.442Z,22.97
2017-11-17T15:33:12.073Z,22.97
2017-11-17T15:35:39.663Z,24.40
2017-11-17T15:38:07.264Z,24.70
2017-11-17T15:40:34.849Z,25.17
2017-11-17T15:43:02.446Z,28.10
2017-11-17T15:45:30.836Z,32.40
2017-11-17T15:47:58.406Z,28.90
2017-11-17T15:50:25.994Z,27.67
2017-11-17T15:52:53.578Z,28.43
2017-11-17T15:55:21.165Z,29.02
2017-11-17T15:57:49.482Z,28.02
2017-11-17T16:00:17.051Z,27.25
2017-11-17T16:02:44.599Z,26.63
2017-11-17T16:05:12.170Z,26.87
2017-11-17T16:07:39.823Z,30.13
2017-11-17T16:10:07.423Z,30.70
2017-11-17T16:12:34.978Z,30.67
2017-11-17T16:15:02.537Z,31.03
2017-11-17T16:17:30.123Z,31.50
2017-11-17T16:19:58.500Z,29.80
2017-11-17T16:22:26.083Z,28.45
2017-11-17T16:24:53.730Z,30.40
2017-11-17T16:27:24.538Z,29.63
2017-11-17T16:29:52.168Z,29.33
2017-11-17T16:32:19.744Z,30.77
2017-11-17T16:34:47.328Z,29.27
2017-11-17T16:37:14.893Z,31.00
2017-11-17T16:39:42.469Z,30.60
2017-11-17T16:42:10.892Z,30.83
2017-11-17T16:44:38.491Z,31.93
2017-11-17T16:47:06.101Z,30.50
2017-11-17T16:49:33.662Z,29.77
2017-11-17T16:52:01.287Z,32.15
2017-11-17T16:54:28.897Z,32.03
2017-11-17T16:56:56.488Z,33.00
2017-11-17T16:59:24.049Z,32.23
2017-11-17T17:01:51.973Z,35.70
2017-11-17T17:04:19.523Z,37.03
2017-11-17T17:06:47.148Z,35.55
2017-11-17T17:09:15.692Z,32.78
2017-11-17T17:11:43.266Z,32.80
2017-11-17T17:14:11.623Z,34.70
2017-11-17T17:16:39.206Z,30.77
2017-11-17T17:19:07.591Z,31.55
2017-11-17T17:21:35.942Z,33.75
2017-11-17T17:24:04.473Z,31.70
2017-11-17T17:26:32.075Z,34.42
2017-11-17T17:28:59.666Z,32.77
2017-11-17T17:31:27.258Z,30.62
2017-11-17T17:33:55.622Z,32.17
2017-11-17T17:36:23.963Z,31.25
2017-11-17T17:38:51.530Z,40.55
2017-11-17T17:41:19.115Z,37.35
2017-11-17T17:43:47.511Z,39.30
2017-11-17T17:46:15.087Z,37.38
2017-11-17T17:48:42.679Z,37.67
2017-11-17T17:51:10.257Z,35.30
2017-11-17T17:53:37.845Z,34.08
2017-11-17T17:56:06.197Z,30.10
2017-11-17T17:58:33.840Z,30.40
2017-11-17T18:01:01.550Z,32.60
2017-11-17T18:03:29.166Z,31.52
2017-11-17T18:05:56.791Z,30.45
2017-11-17T18:08:24.427Z,30.08
2017-11-17T18:10:53.042Z,31.33
2017-11-17T18:13:20.707Z,31.77
2017-11-17T18:15:48.898Z,30.12
2017-11-17T18:18:16.499Z,31.48
2017-11-17T18:20:44.125Z,30.30
2017-11-17T18:23:11.936Z,29.65
2017-11-17T18:25:39.562Z,30.10
2017-11-17T18:28:07.235Z,31.55
2017-11-17T18:30:34.809Z,30.55
2017-11-17T18:33:02.654Z,30.98
2017-11-17T18:35:30.560Z,31.40
2017-11-17T18:37:59.424Z,30.58
2017-11-17T18:40:27.085Z,31.00
2017-11-17T18:42:55.513Z,29.55
2017-11-17T18:45:23.062Z,29.45
2017-11-17T18:47:51.627Z,31.75
2017-11-17T18:50:19.844Z,33.42
2017-11-17T18:52:48.636Z,32.13
2017-11-17T18:55:16.237Z,32.60
2017-11-17T18:57:43.830Z,31.85
2017-11-17T19:00:12.337Z,30.00
2017-11-17T19:02:40.467Z,29.75
2017-11-17T19:05:08.480Z,30.27
2017-11-17T19:07:36.218Z,31.17
2017-11-17T19:10:03.962Z,31.50
2017-11-17T19:12:32.677Z,29.33
2017-11-17T19:15:00.619Z,31.42
2017-11-17T19:17:29.189Z,29.60
2017-11-17T19:19:56.768Z,29.50
2017-11-17T19:22:24.348Z,30.00
2017-11-17T19:24:52.706Z,30.17
2017-11-17T19:27:21.251Z,29.12
2017-11-17T19:29:49.209Z,29.27
2017-11-17T19:32:16.832Z,29.93
2017-11-17T19:34:44.417Z,31.80
2017-11-17T19:37:12.921Z,28.90
2017-11-17T19:39:40.541Z,28.43
2017-11-17T19:42:08.164Z,28.92
2017-11-17T19:44:35.882Z,28.60
2017-11-17T19:47:04.261Z,28.80
2017-11-17T19:49:32.656Z,28.60
2017-11-17T19:52:00.371Z,30.17
2017-11-17T19:54:27.969Z,28.80
2017-11-17T19:56:56.320Z,31.00
2017-11-17T19:59:23.927Z,30.40
2017-11-17T20:01:52.914Z,31.10
2017-11-17T20:04:20.495Z,29.23
2017-11-17T20:06:48.053Z,30.17
2017-11-17T20:09:16.405Z,29.40
2017-11-17T20:11:43.969Z,29.43
2017-11-17T20:14:11.530Z,28.87
2017-11-17T20:16:39.158Z,28.80
2017-11-17T20:19:06.890Z,30.03
2017-11-17T20:21:34.498Z,30.20
2017-11-17T20:24:02.119Z,29.33
2017-11-17T20:26:32.044Z,27.73
2017-11-17T20:28:59.718Z,29.87
2017-11-17T20:31:28.326Z,28.60
2017-11-17T20:33:56.007Z,27.30
2017-11-17T20:36:23.576Z,28.80
2017-11-17T20:38:51.149Z,28.20
2017-11-17T20:41:19.590Z,28.17
2017-11-17T20:43:47.256Z,30.87
2017-11-17T20:46:14.869Z,28.97
2017-11-17T20:48:42.445Z,34.83
2017-11-17T20:51:10.372Z,35.80
2017-11-17T20:53:38.068Z,36.70
2017-11-17T20:56:05.682Z,35.10
2017-11-17T20:58:33.275Z,36.43
2017-11-17T21:01:01.608Z,33.83
2017-11-17T21:03:29.478Z,32.97
2017-11-17T21:05:57.322Z,30.77
2017-11-17T21:08:24.913Z,31.63
2017-11-17T21:10:52.472Z,31.43
2017-11-17T21:13:20.182Z,31.60
2017-11-17T21:15:48.081Z,29.10
2017-11-17T21:18:15.711Z,30.20
2017-11-17T21:20:44.052Z,29.93
2017-11-17T21:23:11.601Z,30.70
2017-11-17T21:25:40.483Z,31.23
2017-11-17T21:28:08.304Z,30.37
2017-11-17T21:30:36.768Z,31.50
2017-11-17T21:33:05.129Z,30.30
2017-11-17T21:35:32.713Z,31.17
2017-11-17T21:38:01.068Z,31.60
2017-11-17T21:40:29.174Z,32.10
2017-11-17T21:42:56.943Z,32.23
2017-11-17T21:45:24.604Z,32.57
2017-11-17T21:47:52.203Z,34.60
2017-11-17T21:50:20.145Z,31.70
2017-11-17T21:52:48.379Z,32.70
2017-11-17T21:55:16.008Z,32.72
2017-11-17T21:57:43.578Z,28.77
2017-11-17T22:00:11.183Z,32.23
2017-11-17T22:02:39.929Z,31.92
2017-11-17T22:05:09.302Z,32.60
2017-11-17T22:07:36.895Z,31.20
2017-11-17T22:10:04.481Z,31.00
2017-11-17T22:12:32.114Z,31.27
2017-11-17T22:14:59.679Z,32.40
2017-11-17T22:17:27.249Z,33.08
2017-11-17T22:19:54.863Z,31.50
2017-11-17T22:22:22.456Z,32.17
2017-11-17T22:24:50.040Z,32.80
2017-11-17T22:27:17.603Z,33.03
2017-11-17T22:29:45.167Z,31.50
2017-11-17T22:32:12.753Z,30.50
2017-11-17T22:34:41.093Z,30.27
2017-11-17T22:37:08.655Z,31.47
2017-11-17T22:39:36.220Z,28.53
2017-11-17T22:42:03.789Z,29.87
2017-11-17T22:44:31.363Z,31.57
2017-11-17T22:46:59.793Z,28.67
2017-11-17T22:49:27.401Z,30.30
2017-11-17T22:51:54.979Z,31.20
2017-11-17T22:54:23.324Z,32.20
2017-11-17T22:56:50.907Z,30.47
2017-11-17T22:59:19.244Z,32.33
2017-11-17T23:01:46.818Z,31.13
2017-11-17T23:04:14.399Z,32.47
2017-11-17T23:06:42.731Z,29.40
2017-11-17T23:09:10.323Z,31.93
2017-11-17T23:11:37.916Z,30.20
2017-11-17T23:14:05.493Z,29.43
2017-11-17T23:16:33.102Z,29.90
2017-11-17T23:19:00.676Z,28.57
2017-11-17T23:21:28.290Z,28.93
2017-11-17T23:23:55.843Z,30.40
2017-11-17T23:26:23.435Z,29.63
2017-11-17T23:28:51.031Z,29.20
2017-11-17T23:31:19.375Z,30.73
2017-11-17T23:33:46.921Z,28.47
2017-11-17T23:36:14.499Z,28.10
2017-11-17T23:38:42.083Z,28.90
2017-11-17T23:41:10.409Z,26.47
2017-11-17T23:43:37.977Z,28.23
2017-11-17T23:46:05.525Z,29.90
2017-11-17T23:48:33.096Z,30.60
2017-11-17T23:51:00.688Z,31.23
2017-11-17T23:53:28.259Z,30.90
2017-11-17T23:55:56.581Z,31.07
2017-11-17T23:58:24.165Z,29.90
